TAF KBIH
KBIH 081731Z 0818/0918 17007KT P6SM BKN250 FM090200 VRB05KT P6SM BKN150 FM090900 34006KT P6SM VCSH FEW030 BKN080 FM091300 36006KT P6SM -SHRA SCT030 BKN050 PROB30 0915/0918 -RA BKN030 OVC050=
METAR KBIH
WC KBIH
WS KBIH
WV KBIH